createdAt,value
2019-01-29T00:01:11.969Z,93.70
2019-01-29T00:05:19.629Z,94.00
2019-01-29T00:09:25.884Z,94.10
2019-01-29T00:13:32.571Z,94.10
2019-01-29T00:17:38.997Z,94.10
2019-01-29T00:21:46.777Z,94.10
2019-01-29T00:25:53.086Z,94.00
2019-01-29T00:30:01.702Z,94.00
2019-01-29T00:34:08.109Z,94.00
2019-01-29T00:38:15.294Z,93.80
2019-01-29T00:42:21.542Z,93.70
2019-01-29T00:46:28.200Z,93.70
2019-01-29T00:50:34.478Z,93.50
2019-01-29T00:54:41.977Z,93.50
2019-01-29T00:58:48.345Z,93.50
2019-01-29T01:02:54.684Z,93.60
2019-01-29T01:07:01.013Z,93.90
2019-01-29T01:11:08.766Z,93.60
2019-01-29T01:15:15.291Z,93.40
2019-01-29T01:19:23.655Z,93.30
2019-01-29T01:23:32.201Z,93.70
2019-01-29T01:27:39.897Z,93.70
2019-01-29T01:31:47.043Z,93.70
2019-01-29T01:35:55.039Z,93.70
2019-01-29T01:40:01.409Z,93.80
2019-01-29T01:44:09.117Z,94.30
2019-01-29T01:48:15.432Z,93.90
2019-01-29T01:52:21.969Z,93.90
2019-01-29T01:56:28.244Z,93.80
2019-01-29T02:00:34.904Z,93.70
2019-01-29T02:04:41.203Z,93.90
2019-01-29T02:08:47.633Z,93.90
2019-01-29T02:12:53.916Z,94.00
2019-01-29T02:17:03.489Z,94.00
2019-01-29T02:21:09.902Z,94.00
2019-01-29T02:25:17.436Z,94.00
2019-01-29T02:29:23.699Z,93.70
2019-01-29T02:33:31.267Z,94.20
2019-01-29T02:37:37.658Z,94.10
2019-01-29T02:41:43.977Z,93.90
2019-01-29T02:45:50.317Z,94.00
2019-01-29T02:50:01.073Z,94.10
2019-01-29T02:54:07.395Z,94.00
2019-01-29T02:58:13.808Z,93.80
2019-01-29T03:02:20.065Z,93.50
2019-01-29T03:06:27.347Z,93.80
2019-01-29T03:10:36.680Z,93.70
2019-01-29T03:14:43.063Z,93.70
2019-01-29T03:18:49.384Z,93.60
2019-01-29T03:22:56.020Z,93.70
2019-01-29T03:27:02.348Z,93.70
2019-01-29T03:31:09.005Z,93.80
2019-01-29T03:35:16.768Z,93.70
2019-01-29T03:39:25.851Z,93.50
2019-01-29T03:43:34.587Z,93.50
2019-01-29T03:47:41.283Z,93.60
2019-01-29T03:51:47.551Z,93.50
2019-01-29T03:55:54.718Z,93.80
2019-01-29T04:00:01.952Z,93.70
2019-01-29T04:04:09.408Z,93.80
2019-01-29T04:08:15.980Z,93.70
2019-01-29T04:12:23.229Z,94.30
2019-01-29T04:16:29.505Z,94.40
2019-01-29T04:20:35.938Z,94.00
2019-01-29T04:24:42.202Z,93.60
2019-01-29T04:28:49.118Z,93.90
2019-01-29T04:32:55.407Z,93.80
2019-01-29T04:37:02.655Z,93.40
2019-01-29T04:41:11.911Z,93.50
2019-01-29T04:45:19.744Z,94.00
2019-01-29T04:49:26.057Z,93.80
2019-01-29T04:53:32.456Z,93.50
2019-01-29T04:57:38.761Z,93.90
2019-01-29T05:01:46.502Z,94.50
2019-01-29T05:05:52.794Z,94.90
2019-01-29T05:09:59.329Z,95.20
2019-01-29T05:14:06.226Z,95.20
2019-01-29T05:18:13.154Z,95.00
2019-01-29T05:22:19.473Z,94.90
2019-01-29T05:26:25.795Z,94.80
2019-01-29T05:30:32.117Z,94.20
2019-01-29T05:34:39.421Z,94.40
2019-01-29T05:38:47.247Z,94.50
2019-01-29T05:42:54.117Z,94.50
2019-01-29T05:47:00.464Z,94.90
2019-01-29T05:51:08.590Z,95.10
2019-01-29T05:55:16.687Z,94.50
2019-01-29T05:59:23.078Z,94.70
2019-01-29T06:03:29.347Z,94.70
2019-01-29T06:07:36.185Z,94.20
2019-01-29T06:11:44.884Z,94.90
2019-01-29T06:15:53.364Z,93.60
2019-01-29T06:19:59.718Z,93.80
2019-01-29T06:24:06.680Z,94.10
2019-01-29T06:28:12.985Z,94.40
2019-01-29T06:32:21.689Z,94.20
2019-01-29T06:36:28.007Z,94.50
2019-01-29T06:40:37.204Z,94.70
2019-01-29T06:44:43.470Z,94.30
2019-01-29T06:48:49.984Z,94.20
2019-01-29T06:52:56.535Z,94.20
2019-01-29T06:57:05.704Z,94.50
2019-01-29T07:01:11.977Z,94.60
2019-01-29T07:05:18.644Z,94.70
2019-01-29T07:09:25.052Z,94.10
2019-01-29T07:13:33.033Z,93.70
2019-01-29T07:17:42.074Z,93.80
2019-01-29T07:21:48.539Z,94.10
2019-01-29T07:25:54.948Z,93.70
2019-01-29T07:30:03.020Z,93.40
2019-01-29T07:34:09.477Z,92.70
2019-01-29T07:38:15.937Z,92.20
2019-01-29T07:42:22.927Z,91.70
2019-01-29T07:46:29.348Z,91.30
2019-01-29T07:50:35.675Z,91.60
2019-01-29T07:54:42.069Z,90.90
2019-01-29T07:58:49.322Z,90.20
2019-01-29T08:02:55.819Z,90.10
2019-01-29T08:07:02.703Z,90.10
2019-01-29T08:11:11.608Z,90.30
2019-01-29T08:15:18.488Z,90.10
2019-01-29T08:19:25.799Z,90.40
2019-01-29T08:23:32.099Z,90.30
2019-01-29T08:27:39.564Z,90.10
2019-01-29T08:31:45.860Z,90.20
2019-01-29T08:35:53.238Z,90.80
2019-01-29T08:39:59.507Z,90.80
2019-01-29T08:44:09.005Z,90.90
2019-01-29T08:48:15.355Z,91.00
2019-01-29T08:52:22.577Z,90.60
2019-01-29T08:56:29.874Z,90.80
2019-01-29T09:00:36.655Z,91.20
2019-01-29T09:04:45.855Z,90.30
2019-01-29T09:08:54.139Z,90.30
2019-01-29T09:13:00.428Z,90.10
2019-01-29T09:17:06.947Z,89.10
2019-01-29T09:21:13.338Z,87.90
2019-01-29T09:25:22.717Z,88.20
2019-01-29T09:29:28.113Z,88.90
2019-01-29T09:33:34.528Z,89.00
2019-01-29T09:37:40.855Z,88.10
2019-01-29T09:41:48.117Z,88.60
2019-01-29T09:45:55.360Z,87.20
2019-01-29T09:50:01.690Z,86.70
2019-01-29T09:54:08.420Z,86.90
2019-01-29T09:58:16.331Z,86.20
2019-01-29T10:02:22.908Z,86.80
2019-01-29T10:06:29.551Z,87.50
2019-01-29T10:10:35.837Z,84.30
2019-01-29T10:14:42.452Z,86.40
2019-01-29T10:18:48.691Z,84.90
2019-01-29T10:22:55.355Z,85.90
2019-01-29T10:27:01.743Z,85.60
2019-01-29T10:31:10.139Z,84.80
2019-01-29T10:35:17.940Z,85.10
2019-01-29T10:39:24.360Z,85.20
2019-01-29T10:43:30.735Z,86.40
2019-01-29T10:47:39.626Z,87.10
2019-01-29T10:51:45.941Z,87.40
2019-01-29T10:55:52.298Z,88.50
2019-01-29T10:59:58.566Z,88.80
2019-01-29T11:04:06.214Z,88.90
2019-01-29T11:08:12.868Z,89.60
2019-01-29T11:12:19.839Z,89.10
2019-01-29T11:16:26.187Z,89.70
2019-01-29T11:20:34.182Z,89.20
2019-01-29T11:24:40.783Z,89.40
2019-01-29T11:28:47.107Z,90.10
2019-01-29T11:32:53.441Z,90.20
2019-01-29T11:37:00.643Z,90.20
2019-01-29T11:41:06.951Z,90.30
2019-01-29T11:45:17.716Z,90.30
2019-01-29T11:49:26.718Z,89.60
2019-01-29T11:53:33.465Z,90.10
2019-01-29T11:57:39.694Z,89.20
2019-01-29T12:01:46.017Z,88.50
2019-01-29T12:05:52.363Z,87.30
2019-01-29T12:10:00.808Z,87.70
2019-01-29T12:14:07.300Z,87.60
2019-01-29T12:18:15.440Z,88.30
2019-01-29T12:22:22.033Z,89.50
2019-01-29T12:26:28.644Z,90.10
2019-01-29T12:30:34.955Z,89.50
2019-01-29T12:34:41.297Z,88.40
2019-01-29T12:38:47.572Z,89.30
2019-01-29T12:42:54.930Z,89.50
2019-01-29T12:47:01.194Z,89.20
2019-01-29T12:51:15.657Z,88.70
2019-01-29T12:55:21.930Z,88.30
2019-01-29T12:59:28.331Z,88.50
2019-01-29T13:03:34.642Z,88.20
2019-01-29T13:07:43.653Z,87.90
2019-01-29T13:11:50.007Z,87.90
2019-01-29T13:15:56.485Z,88.40
2019-01-29T13:20:02.795Z,87.80
2019-01-29T13:24:09.376Z,87.90
2019-01-29T13:28:15.678Z,89.00
2019-01-29T13:32:22.460Z,88.60
2019-01-29T13:36:28.745Z,89.50
2019-01-29T13:40:35.108Z,88.80
2019-01-29T13:44:42.353Z,88.80
2019-01-29T13:48:50.036Z,89.00
2019-01-29T13:52:57.728Z,89.90
2019-01-29T13:57:04.148Z,90.10
2019-01-29T14:01:10.440Z,90.10
2019-01-29T14:05:17.455Z,90.30
2019-01-29T14:09:26.833Z,90.20
2019-01-29T14:13:33.161Z,90.30
2019-01-29T14:17:39.638Z,89.60
2019-01-29T14:21:47.320Z,89.80
2019-01-29T14:25:55.531Z,88.70
2019-01-29T14:30:03.938Z,88.60
2019-01-29T14:34:10.612Z,88.00
2019-01-29T14:38:58.690Z,88.80
2019-01-29T14:43:05.486Z,88.00
2019-01-29T14:47:12.449Z,88.30
2019-01-29T14:51:18.772Z,88.60
2019-01-29T14:55:26.697Z,89.10
2019-01-29T14:59:33.020Z,89.50
2019-01-29T15:03:39.408Z,89.10
2019-01-29T15:07:45.685Z,89.10
2019-01-29T15:11:52.947Z,88.80
2019-01-29T15:16:18.672Z,89.70
2019-01-29T15:20:25.176Z,88.60
2019-01-29T15:24:31.461Z,88.70
2019-01-29T15:28:39.976Z,88.00
2019-01-29T15:32:46.263Z,88.50
2019-01-29T15:36:52.569Z,88.70
2019-01-29T15:40:58.841Z,88.80
2019-01-29T15:45:11.132Z,90.00
2019-01-29T15:49:17.433Z,90.10
2019-01-29T15:53:23.752Z,90.90
2019-01-29T15:57:30.455Z,91.40
2019-01-29T16:01:37.915Z,92.10
2019-01-29T16:05:44.291Z,92.80
2019-01-29T16:09:50.708Z,93.40
2019-01-29T16:13:57.073Z,93.40
2019-01-29T16:18:04.289Z,93.50
2019-01-29T16:22:10.745Z,93.60
2019-01-29T16:26:17.133Z,93.70
2019-01-29T16:30:27.425Z,93.50
2019-01-29T16:34:34.362Z,93.40
2019-01-29T16:38:40.687Z,93.40
2019-01-29T16:42:47.107Z,93.60
2019-01-29T16:46:53.448Z,94.00
2019-01-29T16:51:00.700Z,93.80
2019-01-29T16:55:11.812Z,94.00
2019-01-29T16:59:23.427Z,93.80
2019-01-29T17:03:29.725Z,94.20
2019-01-29T17:07:36.225Z,94.00
2019-01-29T17:11:42.524Z,94.40
2019-01-29T17:15:51.410Z,94.00
2019-01-29T17:19:59.982Z,94.20
2019-01-29T17:24:07.059Z,94.50
2019-01-29T17:28:14.637Z,94.20
2019-01-29T17:32:30.057Z,94.30
2019-01-29T17:36:29.128Z,94.00
2019-01-29T17:40:36.436Z,93.70
2019-01-29T17:44:42.857Z,93.40
2019-01-29T17:48:49.348Z,93.00
2019-01-29T17:52:55.775Z,93.20
2019-01-29T17:57:03.573Z,93.20
2019-01-29T18:01:10.099Z,93.40
2019-01-29T18:05:16.427Z,93.10
2019-01-29T18:09:22.775Z,93.50
2019-01-29T18:13:31.557Z,93.20
2019-01-29T18:17:37.986Z,92.90
2019-01-29T18:21:44.991Z,93.10
2019-01-29T18:25:51.348Z,92.70
2019-01-29T18:29:57.936Z,93.10
2019-01-29T18:34:06.006Z,92.50
2019-01-29T18:38:12.982Z,92.10
2019-01-29T18:42:19.336Z,92.30
2019-01-29T18:46:25.671Z,92.50
2019-01-29T18:50:32.181Z,92.20
2019-01-29T18:54:38.941Z,92.30
2019-01-29T18:58:45.341Z,92.10
2019-01-29T19:02:54.537Z,91.80
2019-01-29T19:07:00.845Z,92.20
2019-01-29T19:11:07.839Z,92.10
2019-01-29T19:15:19.299Z,92.40
2019-01-29T19:19:25.831Z,92.00
2019-01-29T19:23:32.027Z,91.70
2019-01-29T19:27:39.393Z,92.00
2019-01-29T19:32:05.273Z,92.30
2019-01-29T19:36:12.491Z,91.90
2019-01-29T19:40:18.967Z,92.10
2019-01-29T19:44:25.430Z,91.00
2019-01-29T19:48:31.645Z,91.00
2019-01-29T19:52:38.495Z,91.20
2019-01-29T19:56:44.946Z,90.90
2019-01-29T20:00:52.526Z,92.40
2019-01-29T20:05:00.287Z,91.40
2019-01-29T20:09:12.094Z,91.20
2019-01-29T20:13:18.415Z,90.90
2019-01-29T20:17:24.815Z,90.90
2019-01-29T20:21:31.248Z,92.40
2019-01-29T20:25:37.709Z,90.70
2019-01-29T20:29:44.106Z,90.60
2019-01-29T20:33:56.591Z,90.80
2019-01-29T20:38:03.088Z,90.60
2019-01-29T20:42:11.158Z,90.90
2019-01-29T20:46:17.495Z,91.10
2019-01-29T20:50:28.986Z,90.50
2019-01-29T20:54:38.139Z,90.80
2019-01-29T20:58:52.811Z,90.30
2019-01-29T21:02:56.900Z,90.20
2019-01-29T21:07:06.268Z,90.40
2019-01-29T21:11:12.672Z,91.30
2019-01-29T21:15:21.300Z,90.00
2019-01-29T21:19:27.939Z,90.50
2019-01-29T21:23:34.328Z,90.50
2019-01-29T21:27:40.621Z,90.50
2019-01-29T21:31:47.088Z,90.10
2019-01-29T21:35:53.401Z,90.00
2019-01-29T21:40:00.309Z,89.20
2019-01-29T21:44:06.730Z,90.00
2019-01-29T21:48:14.868Z,89.70
2019-01-29T21:52:21.300Z,90.00
2019-01-29T21:56:28.009Z,90.00
2019-01-29T22:00:39.335Z,90.00
2019-01-29T22:04:47.454Z,88.60
2019-01-29T22:08:54.925Z,89.90
2019-01-29T22:13:02.552Z,89.50
2019-01-29T22:17:08.823Z,89.50
2019-01-29T22:21:15.862Z,89.60
2019-01-29T22:25:22.306Z,90.00
2019-01-29T22:29:29.966Z,90.00
2019-01-29T22:33:37.750Z,89.30
2019-01-29T22:37:45.439Z,89.20
2019-01-29T22:41:52.950Z,88.90
2019-01-29T22:45:59.308Z,88.30
2019-01-29T22:50:07.967Z,90.40
2019-01-29T22:54:15.102Z,88.60
2019-01-29T22:58:21.426Z,89.50
2019-01-29T23:02:30.548Z,90.40
2019-01-29T23:06:54.879Z,89.40
2019-01-29T23:11:02.573Z,87.90
2019-01-29T23:15:12.100Z,87.90
2019-01-29T23:19:18.758Z,87.90
2019-01-29T23:23:25.045Z,87.50
2019-01-29T23:27:32.322Z,87.40
2019-01-29T23:31:38.805Z,86.30
2019-01-29T23:35:45.149Z,86.30
2019-01-29T23:39:51.381Z,85.80
2019-01-29T23:43:58.788Z,86.70
2019-01-29T23:48:05.267Z,87.10
2019-01-29T23:52:11.644Z,86.80
2019-01-29T23:56:17.907Z,87.10
